Atascosa, Texas
Current Conditions -  °F | °C
As of 3:15 PM on Tuesday 21 Oct 2014 (Local Time) from KCVB Reporting Station
Clear Clear  
Wind Chill: 85°   Ceiling: Unl
Heat Index: 85°   Visibility: 10mi
Dew Point: 51°   Wind: 8mph
Humidity: 31%   Direction: 100°E
Pressure: 29.99"   Gusts: NA
Location:  29.28°N, 98.74°W
Report Text: KCVB 212015Z AUTO 10007KT 10SM CLR 29/11 A2999 RMK AO2 T02930105
Loading
Personal Weather Stations






























Interactive Weather Map New forecast layout! Learn more

10-Day Weather Forecast

Advertisements
Track Severe Weather on mobile